Werte bis 5 Uhr SommerzeitDiagramme Gross-Gerau: Tagesdaten Monatsdaten WindroseCSV-Datei: Gross-Gerau20.csv

Wetterdaten 2020 Station: Gross-Gerau
Temperaturen in °C relative Nieder- Global- Wind Wind Wind- Sonnen-
Datum Boden Boden Luft Luft Luft Luft Feuchte schlag strahlung max richtung schein
20 cm 5 cm 20 cm 2 m 2 m max 2 m min % mm W/m2*d m/s m/s ° h

07.08.2020 24,6 24,3 16,1 17,0 18,7 15,9 76 0,0 0 0,5 1,3 94 ---
06.08.2020 23,4 25,3 22,7 22,0 31,9 10,8 56 0,0 7442 0,9 6,3 93 12,6
05.08.2020 22,6 24,1 20,6 20,1 29,7 10,3 62 0,0 7457 0,8 7,0 293 12,5
04.08.2020 22,3 23,0 19,5 19,1 26,6 11,6 65 0,0 5962 0,7 4,8 191 12,1
03.08.2020 22,9 23,1 18,7 18,6 24,7 13,6 71 1,2 3333 0,7 5,4 1 10,2
02.08.2020 23,9 24,8 23,1 23,0 30,0 18,1 62 0,6 4612 0,9 5,9 353 10,7
01.08.2020 24,4 25,5 25,5 25,2 32,7 17,3 55 0,0 4484 0,7 3,5 25 11,5
31.07.2020 24,1 26,1 25,3 25,0 36,1 13,1 47 0,0 7856 0,8 4,1 98 13,0
30.07.2020 23,3 24,9 22,2 21,6 31,5 10,7 51 0,0 7788 0,8 5,5 299 13,0
29.07.2020 22,8 24,0 19,8 19,7 28,3 9,0 54 0,0 8002 0,9 7,7 348 12,9
28.07.2020 22,7 23,8 22,5 22,7 29,6 14,8 56 0,0 5781 1,6 8,7 282 12,6
27.07.2020 22,3 22,9 21,5 21,4 31,3 11,7 65 0,0 5808 1,0 5,9 61 12,5
26.07.2020 23,4 24,1 21,2 21,3 27,6 14,2 67 6,2 4841 1,3 8,7 288 11,5
25.07.2020 23,7 25,0 22,7 22,4 28,7 15,9 56 0,0 5083 0,8 5,0 255 11,5
24.07.2020 23,8 25,2 22,0 21,7 29,9 14,4 52 0,0 5524 0,9 7,0 329 11,2
23.07.2020 23,6 25,2 21,7 21,1 28,5 11,4 47 0,0 7490 0,9 6,5 351 12,6
22.07.2020 23,3 24,7 20,1 19,5 28,5 8,6 50 0,0 7965 0,8 4,9 76 13,2
21.07.2020 23,4 25,0 20,4 20,0 27,4 11,4 49 0,0 8315 1,1 6,7 27 13,1
20.07.2020 22,9 24,6 22,0 21,6 29,2 13,0 59 0,0 7609 1,0 6,3 73 11,9
19.07.2020 22,2 23,6 21,7 21,4 30,4 10,5 60 0,0 7240 0,8 5,1 26 13,0
18.07.2020 21,6 23,2 21,7 21,0 28,4 15,0 61 0,0 6413 0,7 4,6 163 11,9
17.07.2020 20,5 21,6 19,4 18,7 25,0 12,5 74 0,0 5373 0,6 4,1 37 10,9
16.07.2020 20,7 20,2 16,5 16,3 18,6 14,6 85 0,6 1744 0,6 5,4 262 5,1
15.07.2020 22,1 22,3 18,1 17,8 23,4 14,6 76 7,0 3918 0,8 5,5 286 9,0
14.07.2020 22,5 24,0 20,6 20,1 29,9 9,5 55 0,9 6277 1,0 7,7 336 11,5
13.07.2020 22,0 23,7 20,7 20,1 28,7 12,1 48 0,0 8063 1,0 6,1 13 12,4
12.07.2020 21,2 22,3 17,9 17,4 26,4 6,8 56 0,0 7358 0,9 6,7 34 13,2
11.07.2020 21,3 21,9 17,9 17,5 23,7 11,1 58 0,1 5046 0,8 5,8 43 13,0
10.07.2020 21,7 22,5 20,7 20,5 24,7 16,0 64 0,0 3704 1,6 10,3 242 11,9
09.07.2020 21,1 22,5 22,5 22,4 31,1 15,7 67 0,0 6004 1,7 8,1 295 11,2
08.07.2020 21,6 21,4 16,2 16,1 18,6 14,1 78 1,5 2053 0,9 5,7 324 8,2
07.07.2020 21,9 22,8 16,8 16,5 24,7 7,0 59 0,0 7166 0,8 6,8 71 12,7
06.07.2020 22,5 23,6 19,1 18,6 23,3 11,6 52 0,0 6300 2,2 10,3 337 12,1
05.07.2020 22,4 23,7 23,9 23,6 28,0 20,9 58 0,0 4329 3,1 10,9 274 9,7
04.07.2020 21,9 22,9 20,3 20,2 27,9 10,0 56 0,0 6322 2,1 9,2 264 12,6
03.07.2020 22,0 22,9 19,2 19,1 26,3 10,6 62 0,0 7554 1,2 6,8 259 13,3
02.07.2020 22,6 24,0 21,5 21,1 27,6 15,8 67 1,3 5512 1,7 13,3 312 10,9
01.07.2020 21,5 23,2 22,3 22,1 29,4 13,4 62 0,0 7330 2,0 9,6 281 13,0
30.06.2020 21,1 21,1 17,8 17,9 23,8 10,9 61 0,0 4404 1,7 8,1 271 12,0
29.06.2020 21,8 22,4 18,6 18,3 26,4 12,6 69 2,0 6768 1,5 7,6 284 11,5
28.06.2020 23,0 23,4 19,9 19,9 24,9 15,2 71 0,4 3558 1,9 10,6 295 8,0
27.06.2020 23,4 24,9 24,0 23,7 30,5 16,6 68 0,0 6389 1,8 10,5 259 12,2
26.06.2020 22,9 24,6 23,0 22,3 32,3 13,8 63 0,0 7701 1,4 12,1 7 11,7
25.06.2020 22,9 24,0 21,9 21,7 27,5 14,9 60 0,0 6073 1,2 6,0 339 13,5
24.06.2020 22,8 24,5 22,6 22,2 29,5 13,5 49 0,0 8738 1,4 6,9 55 13,7
23.06.2020 22,2 23,9 21,5 21,1 29,2 11,5 58 0,0 8674 1,0 7,2 113 13,7
22.06.2020 21,8 23,1 20,8 20,7 27,1 14,5 65 0,0 6673 1,0 5,7 289 12,7
21.06.2020 21,1 22,6 20,3 20,0 28,0 10,1 63 0,0 8059 0,9 6,2 332 12,9
20.06.2020 20,7 21,9 19,4 19,1 26,2 12,0 67 0,0 6763 0,9 7,2 315 12,5
19.06.2020 20,3 21,2 18,8 18,5 25,4 10,6 69 0,0 6639 1,3 8,0 265 13,4
18.06.2020 20,1 21,5 19,2 18,6 25,5 13,3 72 0,0 7388 1,7 6,3 245 12,6
17.06.2020 19,7 20,6 18,5 18,0 25,7 13,1 85 5,3 4907 1,1 5,2 136 9,9
16.06.2020 19,2 20,1 18,2 17,8 21,6 14,7 90 2,4 4024 0,7 2,7 181 11,8
15.06.2020 19,2 19,5 18,4 18,4 21,2 16,5 81 1,1 1807 0,7 3,8 280 6,6
14.06.2020 20,3 20,6 18,8 18,9 22,3 14,7 76 2,9 2654 1,3 6,1 288 9,4
13.06.2020 20,4 22,1 22,3 22,2 29,1 14,5 56 0,1 6750 1,2 5,6 305 12,3
12.06.2020 18,5 20,3 20,5 20,3 29,6 10,2 68 0,0 8224 1,5 8,1 336 13,5
11.06.2020 18,0 18,3 15,7 15,5 19,1 12,0 85 0,8 2937 0,6 4,2 69 8,5
10.06.2020 17,7 18,1 16,4 16,1 21,0 13,4 76 1,8 3903 1,2 5,3 193 8,5
09.06.2020 18,0 18,0 15,1 14,9 21,7 8,2 74 0,0 3520 0,8 5,9 297 10,8
08.06.2020 18,2 18,8 15,3 14,8 23,1 6,7 69 0,0 6114 0,8 5,1 242 11,6
07.06.2020 17,8 18,3 15,7 15,2 19,9 10,3 70 0,0 6035 1,4 6,9 280 12,5
06.06.2020 17,3 17,4 13,7 13,4 18,7 8,7 76 5,0 5305 2,2 10,1 266 12,5
05.06.2020 18,6 18,0 12,9 12,7 16,6 10,3 76 3,0 3289 2,5 11,2 266 8,7
04.06.2020 20,9 20,7 15,3 15,3 18,0 12,2 90 17,7 2482 0,8 7,7 344 7,2
03.06.2020 21,8 23,5 20,3 19,5 30,1 10,5 62 0,1 7268 1,0 8,1 125 11,0
02.06.2020 21,2 23,1 21,0 20,5 29,3 10,2 51 0,0 8391 0,9 6,6 43 13,1
01.06.2020 20,5 22,1 19,8 19,1 28,1 7,8 52 0,0 8569 1,2 9,1 68 13,4
31.05.2020 20,1 21,4 17,2 16,5 23,2 7,7 49 0,0 7752 1,2 8,2 37 13,1
30.05.2020 19,8 21,1 17,5 16,7 22,8 9,2 42 0,0 8411 1,8 9,3 66 13,0
29.05.2020 19,7 20,9 16,8 16,4 24,2 6,6 47 0,0 8194 1,2 6,8 57 13,0
28.05.2020 19,7 21,4 18,5 17,7 23,2 11,6 46 0,0 8594 1,8 9,1 223 13,4
27.05.2020 18,6 20,1 17,3 16,5 25,1 6,1 59 0,0 8365 0,9 4,8 98 13,3
26.05.2020 17,7 18,7 15,0 14,4 22,5 5,5 65 0,0 7240 1,0 6,1 52 13,0
25.05.2020 17,4 18,2 16,6 16,3 22,1 10,5 63 0,0 4985 1,4 7,8 300 11,5
24.05.2020 17,0 17,3 14,7 14,1 19,4 8,4 65 0,0 5594 2,1 8,5 289 10,8
23.05.2020 18,4 18,3 14,8 14,7 19,1 11,2 73 1,4 2426 1,6 10,5 267 8,8
22.05.2020 19,4 20,3 20,2 19,8 26,3 10,9 69 0,0 3981 1,5 6,1 226 12,0
21.05.2020 19,2 21,1 20,3 19,4 27,2 11,5 62 0,0 8041 1,0 5,8 203 13,1
20.05.2020 18,7 20,0 19,3 18,7 26,0 10,6 63 0,0 5708 0,9 7,0 116 12,1
19.05.2020 18,3 20,0 19,0 18,4 26,7 7,3 55 0,0 7896 1,0 6,2 301 13,1
18.05.2020 17,3 18,8 16,4 15,6 25,1 4,2 59 0,0 8037 1,0 6,7 272 13,1
17.05.2020 16,6 17,9 14,1 13,4 20,9 4,6 57 0,0 8153 0,9 6,1 170 13,2
16.05.2020 15,9 17,0 13,1 12,4 20,6 2,2 55 0,0 8073 0,9 5,7 34 13,0
15.05.2020 15,2 16,2 13,4 12,5 19,0 6,9 49 0,0 7783 1,6 7,0 136 11,9
14.05.2020 14,5 15,3 12,1 11,3 17,2 5,8 57 0,0 7462 2,1 8,1 154 12,1
13.05.2020 14,1 14,4 10,7 9,9 16,1 1,3 63 0,0 5787 1,1 6,8 35 12,1
12.05.2020 13,4 13,9 8,1 7,2 14,4 -0,7 71 0,0 7977 0,8 6,2 22 12,5
11.05.2020 15,1 13,8 7,1 7,3 14,3 3,6 92 17,3 1329 2,1 11,7 174 5,0
10.05.2020 16,1 17,5 17,2 16,8 26,0 11,0 80 1,5 5332 0,8 8,6 251 10,6
09.05.2020 15,9 16,1 15,0 15,0 19,2 10,6 66 0,0 2382 0,9 3,9 142 10,0
08.05.2020 16,1 17,6 16,5 16,0 25,3 6,7 60 0,0 6848 0,7 4,3 138 12,1
07.05.2020 14,8 16,0 13,3 12,5 22,6 1,3 61 0,0 7884 0,8 4,5 18 12,9
06.05.2020 14,0 14,6 11,1 10,5 18,3 2,2 55 0,0 7965 1,2 7,7 85 13,0
05.05.2020 13,7 13,9 10,4 9,9 16,9 2,8 62 0,0 6916 1,3 6,6 76 12,7
04.05.2020 14,2 14,8 12,3 12,1 17,2 6,0 83 7,0 3465 1,0 7,1 230 9,1
03.05.2020 13,2 13,7 11,1 10,7 18,2 2,1 73 0,0 5866 0,9 5,7 204 11,8
02.05.2020 13,2 13,1 10,0 9,7 14,6 5,7 80 1,7 4902 1,9 10,7 278 11,1
01.05.2020 13,5 13,3 11,1 11,0 14,6 7,9 80 10,1 3323 2,7 11,9 256 9,0
30.04.2020 14,5 14,6 12,2 12,2 15,0 10,0 85 10,0 2357 2,8 10,4 221 7,7
29.04.2020 14,5 15,3 14,7 14,4 20,7 8,5 65 0,0 4659 2,3 11,2 259 10,8
28.04.2020 15,0 15,0 12,3 12,4 18,8 5,7 78 0,6 2962 1,5 11,1 288 9,5
27.04.2020 15,3 16,5 14,0 13,6 24,0 2,0 58 0,0 7138 1,3 8,6 257 11,8
26.04.2020 15,0 16,1 13,0 12,6 21,8 3,8 55 0,0 7356 1,1 5,3 332 12,2
25.04.2020 15,1 16,0 12,2 11,9 19,0 5,1 56 0,0 7395 1,1 5,9 5 12,3
24.04.2020 14,9 16,0 14,3 14,4 25,1 3,4 57 0,0 6562 1,2 8,7 265 11,3
23.04.2020 14,7 16,0 15,3 15,1 23,3 7,3 45 0,0 7209 1,3 6,8 43 12,2
22.04.2020 14,3 15,3 16,2 16,2 24,5 6,8 34 0,0 7222 2,1 10,5 6 12,1
21.04.2020 13,9 14,8 15,6 15,3 23,2 7,1 31 0,0 7165 2,8 12,9 70 12,0
20.04.2020 13,6 14,4 14,5 14,2 21,2 6,8 33 0,0 6982 2,7 13,3 97 11,8
19.04.2020 13,8 14,3 13,8 13,9 19,8 8,1 70 0,0 4076 1,2 8,3 75 11,4
18.04.2020 13,8 15,2 17,1 17,0 25,7 10,9 60 0,0 4255 1,0 6,3 335 9,0
17.04.2020 12,9 14,4 16,0 15,8 26,1 5,3 62 0,0 6178 0,7 4,6 25 11,0
16.04.2020 11,8 12,8 12,9 13,0 25,0 1,2 58 0,0 6027 1,0 5,8 286 11,5
15.04.2020 10,9 11,1 8,7 8,3 18,8 -1,8 59 0,0 6368 0,9 5,8 8 11,4
14.04.2020 10,9 10,0 5,3 5,2 12,5 -2,1 59 0,0 5184 0,9 7,0 46 11,8
13.04.2020 12,7 12,1 8,2 8,8 14,0 1,4 74 2,0 2384 1,0 6,1 353 7,5
12.04.2020 13,3 14,3 14,2 14,3 25,4 5,3 56 0,0 5250 0,9 8,9 215 10,5
11.04.2020 13,2 14,2 15,2 15,0 24,0 6,6 38 0,0 6512 1,0 5,2 58 11,5
10.04.2020 13,0 14,4 17,7 17,4 24,3 10,6 44 0,0 6285 1,2 6,1 58 11,5
09.04.2020 12,1 13,3 15,7 15,6 25,9 4,9 53 0,0 5433 0,8 4,3 57 10,2
08.04.2020 11,6 12,9 15,9 16,3 24,8 7,9 51 0,0 5971 1,0 4,9 42 11,0
07.04.2020 10,7 11,7 14,3 14,5 24,8 3,5 55 0,0 5730 0,9 6,3 24 10,9
06.04.2020 10,0 10,8 12,2 12,5 23,4 1,2 51 0,0 6033 1,2 7,4 154 11,1
05.04.2020 9,3 9,9 11,4 11,5 20,6 2,4 48 0,0 5976 2,0 8,5 68 11,0
04.04.2020 8,7 9,0 7,5 7,6 16,6 -2,1 59 0,0 5983 0,8 5,8 82 11,1
03.04.2020 8,3 8,5 7,3 7,6 13,7 0,3 60 0,0 3311 1,6 9,8 270 7,5
02.04.2020 7,9 8,0 5,9 5,8 14,8 -4,3 53 0,0 5774 1,0 7,2 306 10,9
01.04.2020 7,7 7,5 4,0 4,0 12,1 -3,6 48 0,0 5906 0,9 6,3 36 11,0
31.03.2020 8,0 8,0 6,0 5,8 10,7 -0,3 50 0,0 4873 1,3 7,3 48 10,6
30.03.2020 7,6 7,3 4,0 3,6 9,7 -1,9 42 0,0 5838 1,4 10,1 11 10,6
29.03.2020 8,4 7,9 5,5 5,6 9,4 1,9 60 0,0 2038 2,1 10,2 348 7,5
28.03.2020 8,5 9,2 12,6 12,7 19,3 5,6 45 0,0 5117 1,6 8,4 304 10,4
27.03.2020 7,3 7,6 10,2 10,4 18,9 3,2 47 0,0 4998 1,6 7,3 41 10,3
26.03.2020 6,5 6,1 5,4 5,7 11,9 -0,1 43 0,0 4812 1,6 8,8 66 9,6
25.03.2020 6,3 5,5 3,7 3,9 11,8 -4,3 37 0,0 5324 1,8 10,0 64 10,2
24.03.2020 6,5 5,5 2,7 2,9 10,5 -3,5 41 0,0 5292 1,8 9,3 38 10,4
23.03.2020 7,1 6,0 3,1 3,2 9,4 -2,0 38 0,0 5200 2,4 10,4 75 9,8
22.03.2020 7,9 7,0 4,8 4,7 10,5 -0,4 42 0,0 5064 2,6 11,9 65 9,7
21.03.2020 9,5 9,0 5,9 6,0 8,1 3,3 71 3,1 1746 2,5 10,1 295 6,8
20.03.2020 9,9 10,6 12,3 12,4 17,9 7,9 66 0,0 3779 1,7 10,8 136 8,3
19.03.2020 9,1 9,4 10,1 10,3 19,5 0,6 72 0,0 4628 0,6 5,3 32 9,4
18.03.2020 9,0 9,3 8,8 9,2 17,5 1,7 82 0,0 3494 0,7 4,4 265 9,2
17.03.2020 8,8 9,6 10,9 11,4 17,4 6,0 77 0,0 3259 0,8 5,1 256 8,6
16.03.2020 7,6 7,8 8,6 8,8 18,3 -0,8 72 0,0 4094 0,7 4,6 262 9,4
15.03.2020 7,5 7,4 7,0 7,1 15,4 0,4 71 0,0 4236 1,2 8,1 191 9,1
14.03.2020 7,4 7,1 4,7 4,9 12,1 -0,3 81 0,0 3309 0,9 5,9 76 8,9
13.03.2020 8,0 7,6 7,1 7,4 10,0 4,3 65 0,0 2030 2,8 12,1 270 7,4
12.03.2020 8,8 9,3 11,2 11,5 13,7 5,8 69 0,1 1375 3,6 14,2 255 4,0
11.03.2020 8,2 9,2 13,3 13,7 14,9 11,6 79 0,0 796 4,4 12,0 241 1,8
10.03.2020 7,1 6,9 7,3 7,6 11,6 4,2 91 10,9 470 3,7 9,8 230 ---
09.03.2020 7,4 7,9 8,4 8,5 12,9 5,6 76 1,3 3065 2,0 8,4 262 7,5
08.03.2020 6,5 6,7 7,8 7,8 11,5 4,5 71 0,1 2293 3,1 9,4 72 6,8
07.03.2020 6,4 6,2 5,5 5,9 10,0 2,5 72 0,1 2317 1,4 6,3 274 6,8
06.03.2020 6,6 6,5 6,0 6,5 8,8 5,6 84 2,8 530 3,0 10,6 283 0,6
05.03.2020 6,3 6,1 5,3 5,4 8,0 2,4 95 9,1 750 1,4 6,1 67 1,7
04.03.2020 6,1 5,6 4,6 4,7 10,3 -0,9 84 0,1 2265 2,2 7,9 259 7,1
03.03.2020 6,9 6,6 4,8 5,2 8,6 -0,7 80 2,5 2495 1,8 8,9 279 7,4
02.03.2020 7,0 7,0 6,6 6,8 11,0 2,5 79 3,3 2031 1,9 14,7 289 5,8
01.03.2020 6,8 7,0 8,4 8,6 12,1 6,0 72 5,8 2307 3,2 11,8 279 6,7
29.02.2020 6,2 6,6 8,3 8,8 14,7 5,2 75 3,4 1718 2,9 14,9 292 6,2
28.02.2020 5,3 4,8 3,9 4,3 7,7 0,2 74 9,4 3131 2,4 9,9 247 8,1
27.02.2020 5,9 5,0 2,5 2,6 5,1 0,1 89 7,8 619 2,3 8,1 271 0,8
26.02.2020 6,7 6,1 3,9 4,1 5,8 1,6 79 2,4 1249 3,3 11,5 273 3,6
25.02.2020 7,4 7,8 8,5 8,8 11,3 5,7 83 5,1 1622 3,2 9,8 264 4,8
24.02.2020 7,0 7,0 7,7 8,0 12,1 4,8 80 0,3 682 2,5 14,7 294 0,1
23.02.2020 6,7 7,2 10,4 10,8 12,9 8,3 79 1,9 209 4,6 14,1 263 ---
22.02.2020 5,7 5,4 7,2 7,4 11,0 2,7 67 0,0 1742 3,6 11,9 264 4,9
21.02.2020 6,1 5,8 5,6 5,9 9,2 1,6 70 1,6 2372 2,7 13,3 260 7,4
20.02.2020 6,1 5,9 7,0 7,1 10,0 3,6 76 0,1 904 3,5 11,1 285 3,0
19.02.2020 6,4 6,2 5,9 6,3 9,1 2,3 70 0,3 1801 2,8 10,7 261 4,9
18.02.2020 6,6 6,5 7,2 7,3 10,0 6,0 72 0,0 1540 3,7 10,5 272 4,5
17.02.2020 6,9 7,2 8,8 9,3 16,2 6,2 79 2,5 513 2,7 11,3 266 ---
16.02.2020 5,9 6,5 12,4 12,9 17,8 7,7 56 0,0 1372 3,9 15,4 276 4,5
15.02.2020 5,1 4,8 5,3 6,0 11,5 -0,3 85 0,0 2477 1,4 6,6 162 7,3
14.02.2020 4,9 5,1 6,4 6,8 9,0 4,3 81 0,2 1147 1,6 6,9 251 4,5
13.02.2020 4,1 3,2 2,5 3,0 6,3 -1,1 92 3,5 507 1,9 10,6 79 0,2
12.02.2020 4,9 4,1 3,5 3,8 6,9 0,4 80 1,2 1411 3,0 10,3 268 5,0
11.02.2020 5,5 5,1 5,4 5,7 8,5 3,5 66 0,0 1919 4,4 16,1 276 5,0
10.02.2020 5,8 6,4 8,5 9,3 13,5 6,1 71 8,6 1477 6,0 20,9 279 4,5
09.02.2020 4,0 3,8 6,2 6,4 13,9 -1,8 78 0,0 1403 3,4 17,0 293 4,1
08.02.2020 3,6 2,6 0,2 0,5 5,2 -4,3 91 0,0 1380 0,4 2,4 309 5,0
07.02.2020 4,0 2,6 0,5 0,9 7,6 -3,8 84 0,1 2309 1,1 7,0 45 6,8
06.02.2020 4,9 3,5 -0,3 -0,1 7,0 -4,1 89 0,0 2144 0,5 3,9 138 6,0
05.02.2020 6,1 5,2 3,9 4,3 8,9 -2,1 73 0,0 2403 1,0 5,7 342 7,3
04.02.2020 7,2 6,8 5,1 5,5 8,0 4,0 85 11,5 1449 2,1 8,8 280 5,6
03.02.2020 7,5 8,0 10,2 10,6 13,0 8,0 81 8,8 1127 2,5 8,3 245 3,2
02.02.2020 7,0 7,1 9,1 9,8 14,4 4,9 85 3,3 356 2,4 8,9 259 ---
01.02.2020 7,3 8,1 11,1 11,6 12,7 7,5 89 10,3 268 3,3 14,2 246 ---
31.01.2020 6,1 7,2 12,0 12,2 15,7 8,3 85 0,0 916 3,4 9,5 246 2,6
30.01.2020 4,5 4,4 6,4 6,5 9,5 2,7 86 0,0 1216 2,8 7,8 208 4,5
29.01.2020 4,4 3,9 3,6 4,0 8,0 1,0 83 0,8 853 2,4 10,4 264 2,0
28.01.2020 4,9 4,8 5,0 5,4 7,5 1,8 87 0,9 772 3,6 15,8 255 2,3
27.01.2020 4,1 4,2 4,7 4,9 7,9 1,8 99 7,8 384 2,4 8,7 211 0,2
26.01.2020 3,7 3,4 1,5 1,3 2,3 -0,1 100 0,0 355 0,7 2,9 132 ---
25.01.2020 3,3 2,9 1,0 0,8 2,2 0,0 99 0,0 435 0,5 1,9 294 0,1
24.01.2020 2,9 2,3 0,5 0,4 0,8 0,0 96 0,0 321 1,0 3,9 115 ---
23.01.2020 2,4 1,6 1,0 0,9 4,7 -1,3 93 0,0 926 0,9 4,3 88 3,9
22.01.2020 2,5 1,0 -3,9 -3,8 -1,2 -7,1 99 0,0 379 0,4 2,8 312 ---
21.01.2020 3,2 1,6 -1,3 -0,7 5,9 -4,1 89 0,0 1812 0,6 3,9 34 6,1
20.01.2020 4,1 3,0 0,7 1,3 7,3 -3,1 87 0,0 1685 0,6 4,5 30 5,5
19.01.2020 4,5 3,7 2,1 2,6 7,3 -0,6 90 0,0 922 0,5 4,5 322 3,3
18.01.2020 4,9 4,1 3,2 4,1 7,3 0,8 86 0,0 1103 1,4 8,1 240 3,5
17.01.2020 5,1 4,1 2,8 3,5 8,6 -1,9 93 0,0 679 0,8 4,5 240 2,2
16.01.2020 6,2 6,1 7,5 8,3 13,8 1,6 86 0,0 1569 0,7 4,3 191 5,3
15.01.2020 5,7 5,7 9,2 9,7 13,4 5,5 68 0,0 1528 2,4 7,8 234 6,1
14.01.2020 5,3 5,3 7,2 7,6 9,8 5,4 77 0,0 566 2,3 7,4 204 ---
13.01.2020 4,9 4,7 5,1 5,3 7,2 3,1 96 0,0 423 1,8 4,7 199 0,5
12.01.2020 4,4 3,3 1,9 2,3 5,3 -2,1 93 0,0 397 2,0 6,9 193 0,1
11.01.2020 5,6 4,6 1,7 2,5 6,9 -1,4 90 0,0 1079 0,5 4,2 242 2,7
10.01.2020 6,5 6,8 8,1 8,5 11,9 6,0 88 4,8 980 2,3 9,7 242 3,4
09.01.2020 5,7 6,4 8,9 9,2 11,4 7,0 97 8,5 346 2,1 6,9 195 ---
08.01.2020 4,4 4,2 4,6 4,7 7,1 2,3 98 0,9 232 2,2 6,3 216 ---
07.01.2020 4,3 4,0 3,2 3,5 7,8 -0,4 96 0,0 807 1,4 4,0 192 2,6
06.01.2020 4,4 3,8 1,0 1,1 5,1 -0,6 99 0,0 368 0,9 4,1 222 ---
05.01.2020 4,2 4,0 4,3 4,6 6,1 2,3 96 0,0 332 0,8 3,9 171 ---
04.01.2020 4,2 3,7 3,9 4,7 9,0 1,6 85 0,0 410 1,7 9,1 249 0,3
03.01.2020 3,4 3,4 5,4 5,6 9,1 1,3 94 0,0 298 2,8 8,1 225 ---
02.01.2020 2,6 1,4 -0,6 -0,7 1,5 -3,7 99 0,0 243 1,0 3,9 211 ---
01.01.2020 2,7 1,5 -0,2 0,2 5,1 -3,3 93 0,0 1382 0,7 3,7 44 5,5

Mittelwerte (Temperaturen, Strahlung, rel. Feuchte, Wind), Summe (Regen) für 2020
13,2 13,6 12,2 12,2 69 259 4.219 1,6

Landesbetrieb Landwirtschaft Hessen 2009

      Werte bis 5 Uhr SommerzeitCSV-Datei: Gross-Gerau20.csvDiagramm: Gross-Gerau